Time;durP1;ratioP1;P1;durP2;ratioP2;P2;SDS_P1;SDS_P2;PMS_P1;PMS_P2;Temp;Humidity;BMP_temperature;BMP_pressure;BME280_temperature;BME280_humidity;BME280_pressure;Samples;Min_cycle;Max_cycle;Signal;HPM_P1;HPM_P2
2022/01/21 00:01:14;;;;;;;8.87;2.50;;;3.70;90.00;;;;;;20838053;28;20212;-60
2022/01/21 00:11:16;;;;;;;8.33;2.57;;;3.50;89.20;;;;;;20835704;28;20262;-60
2022/01/21 00:31:39;;;;;;;10.87;3.43;;;3.50;90.70;;;;;;20835349;28;20228;-69
2022/01/21 00:41:52;;;;;;;9.33;3.67;;;3.50;91.00;;;;;;20838314;28;20231;-68
2022/01/21 00:51:54;;;;;;;7.63;3.53;;;3.50;91.30;;;;;;20840235;28;20295;-60
2022/01/21 01:01:56;;;;;;;11.70;3.30;;;3.40;90.80;;;;;;20835848;28;20617;-60
2022/01/21 01:22:00;;;;;;;10.43;3.00;;;3.40;90.50;;;;;;20831795;28;20208;-59
2022/01/21 01:32:03;;;;;;;6.90;2.27;;;3.60;90.60;;;;;;20830668;28;20240;-61
2022/01/21 01:52:15;;;;;;;8.40;2.80;;;3.60;90.60;;;;;;20830445;28;20249;-61
2022/01/21 02:02:18;;;;;;;7.77;2.47;;;3.50;90.40;;;;;;20830502;28;20263;-60
2022/01/21 02:12:20;;;;;;;12.73;2.77;;;3.50;90.50;;;;;;20846764;28;20237;-61
2022/01/21 02:22:28;;;;;;;5.57;2.13;;;3.50;90.70;;;;;;20846180;28;20235;-61
2022/01/21 02:32:30;;;;;;;7.30;2.20;;;3.50;90.30;;;;;;20844963;28;20702;-60
2022/01/21 02:42:32;;;;;;;8.83;2.27;;;3.50;90.50;;;;;;20844128;28;20236;-61
2022/01/21 02:52:41;;;;;;;5.70;2.20;;;3.40;90.60;;;;;;20843454;28;20271;-63
2022/01/21 03:02:43;;;;;;;9.03;2.70;;;3.10;90.80;;;;;;20842436;28;20211;-65
2022/01/21 03:12:45;;;;;;;10.43;2.50;;;3.20;91.00;;;;;;20841760;28;20329;-60
2022/01/21 03:22:47;;;;;;;10.60;3.03;;;3.20;90.80;;;;;;20840248;28;20231;-63
2022/01/21 03:32:49;;;;;;;10.23;2.47;;;3.10;90.90;;;;;;20839691;28;20269;-60
2022/01/21 03:42:50;;;;;;;8.27;2.60;;;2.90;90.90;;;;;;20839343;28;20243;-60
2022/01/21 03:52:52;;;;;;;9.10;2.50;;;2.80;91.00;;;;;;20838750;28;20298;-63
2022/01/21 04:02:54;;;;;;;12.93;2.97;;;2.80;91.10;;;;;;20837872;28;20208;-58
2022/01/21 04:12:56;;;;;;;10.63;2.63;;;2.80;91.20;;;;;;20836921;28;20232;-59
2022/01/21 04:22:58;;;;;;;12.83;2.87;;;2.80;91.20;;;;;;20836553;28;20212;-59
2022/01/21 04:33:00;;;;;;;9.50;2.60;;;2.90;91.20;;;;;;20834258;28;20244;-69
2022/01/21 04:53:25;;;;;;;9.87;3.23;;;3.30;91.20;;;;;;20834008;28;20248;-73
2022/01/21 05:03:27;;;;;;;9.20;2.53;;;3.30;91.40;;;;;;20833172;28;20262;-62
2022/01/21 05:13:36;;;;;;;11.77;3.20;;;3.30;90.90;;;;;;20832335;28;20286;-62
2022/01/21 05:23:38;;;;;;;10.30;3.40;;;3.20;91.00;;;;;;20872746;28;20505;-72
2022/01/21 05:33:40;;;;;;;16.10;3.57;;;3.00;90.80;;;;;;20912941;28;20327;-69
2022/01/21 05:43:45;;;;;;;12.03;3.60;;;3.10;90.90;;;;;;20911495;28;20261;-72
2022/01/21 05:53:47;;;;;;;11.63;2.60;;;3.10;91.20;;;;;;20913175;28;20317;-59
2022/01/21 06:03:50;;;;;;;11.20;3.07;;;3.00;90.90;;;;;;20912158;28;20211;-68
2022/01/21 06:13:52;;;;;;;10.50;3.27;;;3.00;90.80;;;;;;20919967;28;20637;-61
2022/01/21 06:23:53;;;;;;;9.27;3.70;;;3.00;90.70;;;;;;20914992;28;20254;-61
2022/01/21 06:33:55;;;;;;;16.30;3.70;;;3.00;90.90;;;;;;20911180;28;20619;-59
2022/01/21 06:43:57;;;;;;;12.60;3.50;;;3.10;90.90;;;;;;20909448;28;20204;-60
2022/01/21 06:53:59;;;;;;;8.57;3.37;;;3.10;91.20;;;;;;20917130;28;20244;-78
2022/01/21 07:04:01;;;;;;;11.83;3.70;;;3.10;90.90;;;;;;20924359;28;20209;-66
2022/01/21 07:14:03;;;;;;;12.77;4.03;;;3.20;90.90;;;;;;20922363;28;20235;-62
2022/01/21 07:24:05;;;;;;;14.00;5.53;;;3.20;91.00;;;;;;20880787;28;20211;-65
2022/01/21 07:34:07;;;;;;;16.20;4.93;;;3.20;91.30;;;;;;20838959;28;20236;-70
2022/01/21 07:44:09;;;;;;;15.30;5.53;;;3.30;91.30;;;;;;20837964;28;20215;-70
2022/01/21 07:54:11;;;;;;;12.73;5.27;;;3.30;91.50;;;;;;20837200;28;20482;-65
2022/01/21 08:04:13;;;;;;;13.47;4.83;;;3.20;91.30;;;;;;20837090;28;20549;-62
2022/01/21 08:14:15;;;;;;;16.57;5.47;;;3.30;91.40;;;;;;20835609;28;20241;-62
2022/01/21 08:24:16;;;;;;;20.70;9.20;;;3.40;91.60;;;;;;20835197;28;20621;-60
2022/01/21 08:34:18;;;;;;;17.97;4.80;;;3.50;91.70;;;;;;20834999;28;20229;-65
2022/01/21 08:44:20;;;;;;;12.67;5.57;;;3.50;91.30;;;;;;20833318;28;20547;-59
2022/01/21 08:54:22;;;;;;;12.73;5.13;;;3.50;91.10;;;;;;20860653;28;20316;-60
2022/01/21 09:04:24;;;;;;;15.77;5.40;;;3.50;91.40;;;;;;20914627;28;20207;-59
2022/01/21 09:14:30;;;;;;;14.03;6.00;;;3.50;91.30;;;;;;20830717;28;20232;-58
2022/01/21 09:24:33;;;;;;;15.87;5.77;;;3.60;91.20;;;;;;20830612;28;20300;-61
2022/01/21 09:34:34;;;;;;;11.60;5.50;;;3.90;91.10;;;;;;20830129;28;20653;-60
2022/01/21 09:44:38;;;;;;;13.53;6.40;;;3.90;91.30;;;;;;20860555;28;20231;-63
2022/01/21 09:54:45;;;;;;;12.70;6.00;;;4.00;91.30;;;;;;20910015;28;20628;-71
2022/01/21 10:04:51;;;;;;;13.67;6.03;;;4.00;91.30;;;;;;20911616;28;20203;-65
2022/01/21 10:14:52;;;;;;;29.00;8.60;;;4.10;91.20;;;;;;20910873;28;20640;-59
2022/01/21 10:25:16;;;;;;;15.57;6.30;;;4.30;91.30;;;;;;20916491;28;20257;-60
2022/01/21 10:35:24;;;;;;;17.60;6.30;;;4.50;91.00;;;;;;20927387;28;20710;-64
2022/01/21 10:45:49;;;;;;;14.80;6.20;;;4.50;91.10;;;;;;20891064;28;20225;-61
2022/01/21 10:55:51;;;;;;;26.70;11.73;;;4.50;91.00;;;;;;20845261;28;20236;-69
2022/01/21 11:06:13;;;;;;;12.57;5.70;;;4.70;90.90;;;;;;20842127;28;20209;-62
2022/01/21 11:16:23;;;;;;;11.00;6.10;;;4.80;90.70;;;;;;20841236;28;20240;-64
2022/01/21 11:27:04;;;;;;;14.67;6.23;;;4.90;90.50;;;;;;20840462;28;20269;-67
2022/01/21 11:37:07;;;;;;;14.90;6.57;;;4.90;90.00;;;;;;20843327;28;20247;-68
2022/01/21 11:57:24;;;;;;;11.20;4.93;;;5.10;90.30;;;;;;20836646;28;20327;-64
2022/01/21 12:07:44;;;;;;;15.13;5.00;;;5.20;90.10;;;;;;20835999;28;20208;-62
2022/01/21 12:17:51;;;;;;;9.93;4.90;;;5.20;89.00;;;;;;20834326;28;20333;-60
2022/01/21 12:28:16;;;;;;;12.13;4.80;;;5.50;88.60;;;;;;20834468;28;20209;-60
2022/01/21 12:48:35;;;;;;;13.93;6.13;;;5.40;88.80;;;;;;20894122;28;20683;-61
2022/01/21 12:58:42;;;;;;;17.87;6.00;;;5.40;88.80;;;;;;20914783;28;20721;-62
2022/01/21 13:09:10;;;;;;;11.77;5.30;;;5.40;89.10;;;;;;20913549;28;20239;-61
2022/01/21 13:19:12;;;;;;;14.10;5.50;;;5.50;89.00;;;;;;20904048;28;20217;-61
2022/01/21 13:29:14;;;;;;;13.43;5.77;;;5.60;88.30;;;;;;20911234;28;20294;-60
2022/01/21 13:39:23;;;;;;;10.33;5.57;;;5.60;88.90;;;;;;20892776;28;20619;-61
2022/01/21 13:49:26;;;;;;;16.67;6.43;;;5.50;89.70;;;;;;20827083;28;20278;-61
2022/01/21 13:59:29;;;;;;;13.43;5.50;;;5.40;89.90;;;;;;20827808;28;20285;-63
2022/01/21 14:09:31;;;;;;;12.87;5.90;;;5.30;90.30;;;;;;20828619;28;20278;-62
2022/01/21 14:19:39;;;;;;;13.97;6.03;;;5.20;90.60;;;;;;20828923;28;20209;-62
2022/01/21 14:29:42;;;;;;;12.67;5.80;;;5.10;90.70;;;;;;20828581;28;20699;-60
2022/01/21 14:39:46;;;;;;;11.57;6.13;;;5.10;90.70;;;;;;20827721;28;20594;-63
2022/01/21 14:49:56;;;;;;;9.40;5.17;;;5.00;91.10;;;;;;20827509;28;20237;-62
2022/01/21 15:00:02;;;;;;;10.73;5.40;;;5.10;91.40;;;;;;20827959;28;20209;-61
2022/01/21 15:10:22;;;;;;;11.30;5.70;;;5.20;91.30;;;;;;20827696;28;20326;-61
2022/01/21 15:20:32;;;;;;;12.87;5.40;;;5.20;91.40;;;;;;20866260;28;20207;-74
2022/01/21 15:30:34;;;;;;;13.27;5.53;;;5.10;91.00;;;;;;20838921;28;20236;-61
2022/01/21 15:40:36;;;;;;;9.90;5.17;;;5.00;91.50;;;;;;20839381;28;20211;-66
2022/01/21 15:50:38;;;;;;;12.17;5.27;;;5.00;91.50;;;;;;20838860;28;20245;-69
2022/01/21 16:00:40;;;;;;;13.43;5.33;;;5.10;91.40;;;;;;20838207;28;20262;-73
2022/01/21 16:10:42;;;;;;;13.17;5.27;;;5.00;91.10;;;;;;20853343;28;20582;-71
2022/01/21 16:20:55;;;;;;;10.77;5.00;;;5.00;91.40;;;;;;20891435;28;20239;-73
2022/01/21 16:30:57;;;;;;;9.27;4.97;;;5.00;91.00;;;;;;20834793;28;20596;-61
2022/01/21 16:41:02;;;;;;;9.57;4.90;;;5.00;91.30;;;;;;20834476;28;20217;-72
2022/01/21 16:51:04;;;;;;;9.13;4.60;;;5.20;91.30;;;;;;20833882;28;20252;-63
2022/01/21 17:01:07;;;;;;;9.23;4.30;;;5.20;90.90;;;;;;20832195;28;20219;-65
2022/01/21 17:11:09;;;;;;;8.63;4.50;;;5.20;90.80;;;;;;20834893;28;20254;-62
2022/01/21 17:21:11;;;;;;;8.87;4.97;;;5.10;91.10;;;;;;20848694;28;20206;-63
2022/01/21 17:31:13;;;;;;;10.97;4.70;;;5.20;91.10;;;;;;20836508;28;20243;-67
2022/01/21 17:41:15;;;;;;;8.50;4.83;;;5.10;91.20;;;;;;20831228;28;20263;-61
2022/01/21 17:51:17;;;;;;;11.87;5.17;;;5.10;91.40;;;;;;20830441;28;20671;-61
2022/01/21 18:01:19;;;;;;;9.47;5.00;;;5.00;91.50;;;;;;20833522;28;20208;-74
2022/01/21 18:11:25;;;;;;;9.07;5.13;;;5.00;91.40;;;;;;20840321;28;20259;-72
2022/01/21 18:21:26;;;;;;;11.30;5.27;;;5.00;91.80;;;;;;20890649;28;20250;-70
2022/01/21 18:31:28;;;;;;;12.37;5.10;;;5.10;92.00;;;;;;20910758;28;20232;-72
2022/01/21 18:41:30;;;;;;;9.53;5.40;;;5.00;92.00;;;;;;20910228;28;20671;-61
2022/01/21 18:51:33;;;;;;;9.20;5.30;;;5.00;92.40;;;;;;20919099;28;20648;-62
2022/01/21 19:01:39;;;;;;;11.33;5.37;;;5.00;92.70;;;;;;20924478;28;20659;-62
2022/01/21 19:11:40;;;;;;;10.47;5.47;;;4.80;93.60;;;;;;20886681;28;20645;-73
2022/01/21 19:21:50;;;;;;;7.30;4.77;;;4.80;93.60;;;;;;20925240;28;20205;-66
2022/01/21 19:31:52;;;;;;;9.13;4.60;;;4.80;94.50;;;;;;20921345;28;20286;-69
2022/01/21 19:41:53;;;;;;;10.13;5.57;;;4.80;94.80;;;;;;20920401;28;20655;-70
2022/01/21 19:51:55;;;;;;;10.07;4.50;;;4.70;95.10;;;;;;20919574;28;20698;-64
2022/01/21 20:22:24;;;;;;;7.27;3.80;;;4.90;95.80;;;;;;20906654;28;20211;-73
2022/01/21 20:32:27;;;;;;;8.00;3.80;;;4.90;95.90;;;;;;20916586;28;20283;-78
2022/01/21 20:42:29;;;;;;;9.07;3.30;;;4.80;95.80;;;;;;20916700;28;20211;-59
2022/01/21 20:52:31;;;;;;;4.60;3.03;;;4.80;95.80;;;;;;20920789;28;20250;-77
2022/01/21 21:02:33;;;;;;;4.73;2.97;;;4.90;95.80;;;;;;20912529;28;20443;-59
2022/01/21 21:12:35;;;;;;;22.90;13.77;;;5.00;95.80;;;;;;20831092;28;20747;-64
2022/01/21 22:23:00;;;;;;;5.03;3.57;;;5.00;96.70;;;;;;20981717;28;20760;-61
2022/01/21 23:03:13;;;;;;;9.83;5.63;;;5.10;97.60;;;;;;20923793;28;20252;-71
2022/01/21 23:13:15;;;;;;;12.00;6.50;;;5.20;97.70;;;;;;20920193;28;20613;-60
2022/01/21 23:23:17;;;;;;;10.67;6.43;;;5.30;97.60;;;;;;20922501;28;20262;-61
2022/01/21 23:33:25;;;;;;;10.40;6.80;;;5.30;97.60;;;;;;20923480;28;20277;-61
2022/01/21 23:43:27;;;;;;;12.17;7.13;;;5.30;98.00;;;;;;20920744;28;20248;-61
2022/01/21 23:53:29;;;;;;;8.47;5.97;;;5.30;98.00;;;;;;20920344;28;20200;-61
